Time;durP1;ratioP1;P1;durP2;ratioP2;P2;SDS_P1;SDS_P2;PMS_P1;PMS_P2;Temp;Humidity;BMP_temperature;BMP_pressure;BME280_temperature;BME280_humidity;BME280_pressure;Samples;Min_cycle;Max_cycle;Signal;HPM_P1;HPM_P2
2022/07/26 00:00:13;;;;;;;6.05;2.67;;;;;;;13.99;58.97;95362.12;1795526;80;21007;-64
2022/07/26 00:02:42;;;;;;;9.63;2.83;;;;;;;13.99;58.69;95364.77;1795189;80;21022;-64
2022/07/26 00:05:09;;;;;;;8.80;3.58;;;;;;;13.95;59.03;95361.34;1795297;80;21054;-64
2022/07/26 00:07:36;;;;;;;5.30;2.33;;;;;;;13.98;58.69;95355.06;1795279;80;21062;-64
2022/07/26 00:10:05;;;;;;;8.18;2.92;;;;;;;13.98;58.59;95357.72;1795618;80;20998;-64
2022/07/26 00:12:33;;;;;;;7.95;2.52;;;;;;;13.94;58.84;95359.63;1795033;80;21089;-64
2022/07/26 00:14:59;;;;;;;4.55;2.20;;;;;;;13.85;59.75;95354.16;1795406;80;21034;-65
2022/07/26 00:17:26;;;;;;;8.75;2.70;;;;;;;13.83;59.59;95352.48;1795259;80;20999;-64
2022/07/26 00:19:53;;;;;;;3.90;2.60;;;;;;;13.82;59.20;95346.79;1795514;80;21504;-65
2022/07/26 00:22:35;;;;;;;5.90;2.50;;;;;;;13.85;58.55;95349.33;1795555;80;21014;-64
2022/07/26 00:25:05;;;;;;;8.90;2.50;;;;;;;13.88;58.58;95343.91;1795258;80;20979;-64
2022/07/26 00:27:32;;;;;;;5.33;2.62;;;;;;;13.81;59.11;95341.95;1795510;80;21010;-64
2022/07/26 00:29:59;;;;;;;5.87;2.50;;;;;;;13.78;58.84;95333.22;1795350;80;21007;-65
2022/07/26 00:32:26;;;;;;;8.20;2.70;;;;;;;13.79;59.03;95333.18;1795327;80;21002;-64
2022/07/26 00:34:52;;;;;;;3.70;2.47;;;;;;;13.74;59.04;95329.83;1795584;80;20987;-65
2022/07/26 00:37:19;;;;;;;5.62;2.60;;;;;;;13.66;59.96;95331.89;1795610;80;21006;-64
2022/07/26 00:39:46;;;;;;;11.05;2.60;;;;;;;13.59;60.62;95331.22;1795561;80;21051;-64
2022/07/26 00:42:12;;;;;;;6.12;2.45;;;;;;;13.56;60.61;95327.36;1795598;80;20971;-64
2022/07/26 00:44:41;;;;;;;7.77;2.53;;;;;;;13.55;60.42;95333.56;1795386;80;20994;-65
2022/07/26 00:47:08;;;;;;;7.55;3.15;;;;;;;13.53;60.51;95330.55;1795210;80;21053;-64
2022/07/26 00:49:35;;;;;;;7.33;2.85;;;;;;;13.55;60.09;95332.70;1795328;80;21014;-64
2022/07/26 00:52:05;;;;;;;4.65;2.25;;;;;;;13.50;60.67;95333.31;1795512;80;21449;-64
2022/07/26 00:54:32;;;;;;;6.00;2.70;;;;;;;13.48;59.93;95338.69;1795229;80;21003;-64
2022/07/26 00:56:58;;;;;;;5.63;3.00;;;;;;;13.47;59.90;95342.23;1795352;80;21066;-64
2022/07/26 00:59:25;;;;;;;5.80;2.50;;;;;;;13.36;61.23;95337.31;1795401;80;21002;-64
2022/07/26 01:01:52;;;;;;;3.92;2.45;;;;;;;13.26;61.44;95345.13;1795396;80;20987;-64
2022/07/26 01:04:20;;;;;;;6.37;2.30;;;;;;;13.26;60.63;95338.97;1795148;80;21086;-65
2022/07/26 01:06:48;;;;;;;4.78;2.37;;;;;;;13.35;60.27;95331.59;1795144;80;21073;-64
2022/07/26 01:09:16;;;;;;;8.80;2.70;;;;;;;13.37;60.51;95335.05;1795419;80;21472;-64
2022/07/26 01:11:44;;;;;;;4.53;2.42;;;;;;;13.38;60.98;95331.51;1795535;80;20994;-65
2022/07/26 01:14:11;;;;;;;6.20;2.60;;;;;;;13.28;61.64;95327.44;1794876;80;21070;-64
2022/07/26 01:16:38;;;;;;;4.92;2.52;;;;;;;13.21;61.76;95325.41;1795084;80;21050;-64
2022/07/26 01:19:04;;;;;;;8.43;2.80;;;;;;;13.18;61.93;95333.92;1795486;80;20998;-64
2022/07/26 01:21:32;;;;;;;5.78;2.67;;;;;;;13.14;61.57;95329.63;1795232;80;21507;-64
2022/07/26 01:23:59;;;;;;;11.90;3.30;;;;;;;13.13;62.17;95327.91;1795733;80;21042;-65
2022/07/26 01:26:26;;;;;;;5.20;2.10;;;;;;;13.09;62.61;95328.45;1795524;80;20974;-64
2022/07/26 01:28:53;;;;;;;4.47;2.27;;;;;;;13.09;61.76;95328.45;1795384;80;21480;-64
2022/07/26 01:31:19;;;;;;;6.70;2.60;;;;;;;13.05;62.28;95325.95;1795510;80;20987;-65
2022/07/26 01:33:46;;;;;;;5.40;2.62;;;;;;;13.04;62.23;95318.47;1795378;80;21018;-65
2022/07/26 01:36:13;;;;;;;3.97;2.17;;;;;;;13.04;62.68;95317.61;1795563;80;20983;-64
2022/07/26 01:38:41;;;;;;;4.55;2.50;;;;;;;13.07;61.73;95324.98;1795398;80;21424;-64
2022/07/26 01:41:08;;;;;;;4.83;2.63;;;;;;;12.98;62.33;95318.22;1795646;80;20963;-64
2022/07/26 01:43:36;;;;;;;4.23;2.30;;;;;;;12.90;62.82;95315.39;1795541;80;21003;-64
2022/07/26 01:46:06;;;;;;;4.83;2.10;;;;;;;12.86;62.12;95315.95;1795527;80;21030;-64
2022/07/26 01:48:34;;;;;;;5.13;2.60;;;;;;;12.82;61.87;95312.13;1795351;80;21046;-65
2022/07/26 01:51:01;;;;;;;4.20;2.47;;;;;;;12.86;62.73;95315.95;1795752;80;20967;-65
2022/07/26 01:53:28;;;;;;;6.43;2.80;;;;;;;12.85;63.14;95312.91;1795588;80;21018;-64
2022/07/26 01:55:55;;;;;;;6.40;2.60;;;;;;;12.76;63.10;95315.84;1795132;80;21065;-64
2022/07/26 01:58:22;;;;;;;3.83;2.37;;;;;;;12.77;62.75;95310.52;1795630;80;20974;-64
2022/07/26 02:00:49;;;;;;;6.30;2.83;;;;;;;12.81;63.57;95316.56;1795541;80;21472;-64
2022/07/26 02:03:16;;;;;;;6.33;2.50;;;;;;;12.81;63.10;95315.23;1795711;80;21011;-64
2022/07/26 02:05:42;;;;;;;5.80;3.00;;;;;;;12.75;63.54;95314.98;1795615;80;21078;-64
2022/07/26 02:08:11;;;;;;;6.73;3.20;;;;;;;12.67;63.86;95319.63;1795609;80;21476;-64
2022/07/26 02:13:23;;;;;;;7.40;3.13;;;;;;;12.64;63.90;95320.19;1795631;80;21413;-64
2022/07/26 02:15:50;;;;;;;10.57;3.57;;;;;;;12.64;63.70;95310.47;1795582;80;21492;-64
2022/07/26 02:18:16;;;;;;;15.97;3.63;;;;;;;12.64;63.63;95311.79;1795381;80;21007;-65
2022/07/26 02:20:43;;;;;;;8.47;2.87;;;;;;;12.64;64.22;95310.47;1795617;80;20939;-64
2022/07/26 02:23:10;;;;;;;4.67;2.60;;;;;;;12.67;63.60;95302.88;1787876;80;21014;-64
2022/07/26 02:25:37;;;;;;;7.27;2.70;;;;;;;12.66;63.47;95303.34;1786896;80;21034;-65
2022/07/26 02:28:04;;;;;;;7.77;2.60;;;;;;;12.61;64.19;95304.41;1787321;80;20975;-64
2022/07/26 02:30:31;;;;;;;7.00;2.67;;;;;;;12.52;64.87;95299.83;1787158;80;21540;-64
2022/07/26 02:32:58;;;;;;;8.17;2.60;;;;;;;12.46;64.66;95304.42;1787155;80;21468;-65
2022/07/26 02:35:24;;;;;;;5.57;3.07;;;;;;;12.41;65.09;95305.88;1787239;80;21050;-64
2022/07/26 02:37:51;;;;;;;5.80;2.73;;;;;;;12.32;65.14;95307.05;1787217;80;21006;-64
2022/07/26 02:40:19;;;;;;;5.63;2.43;;;;;;;12.30;64.79;95304.89;1787131;80;21580;-64
2022/07/26 02:42:45;;;;;;;7.93;2.50;;;;;;;12.28;64.90;95312.00;1787085;80;21000;-65
2022/07/26 02:45:12;;;;;;;4.17;2.30;;;;;;;12.29;64.64;95306.25;1787138;80;20999;-64
2022/07/26 02:47:49;;;;;;;8.57;2.90;;;;;;;12.27;65.64;95301.02;1786869;80;21457;-65
2022/07/26 02:50:18;;;;;;;8.90;2.80;;;;;;;12.26;65.12;95297.95;1787308;80;20963;-65
2022/07/26 02:52:46;;;;;;;5.50;2.53;;;;;;;12.24;65.20;95296.27;1787077;80;20968;-65
2022/07/26 02:55:15;;;;;;;10.20;2.80;;;;;;;12.32;65.23;95296.46;1787123;80;21481;-64
2022/07/26 02:57:42;;;;;;;9.13;3.00;;;;;;;12.36;64.73;95292.39;1787243;80;21512;-65
2022/07/26 03:00:12;;;;;;;8.37;2.80;;;;;;;12.36;64.97;95294.58;1787066;80;21050;-65
2022/07/26 03:02:39;;;;;;;4.10;2.43;;;;;;;12.38;65.04;95294.08;1787052;80;21054;-64
2022/07/26 03:05:07;;;;;;;3.73;2.53;;;;;;;12.44;64.93;95294.34;1787178;80;21454;-65
2022/07/26 03:07:34;;;;;;;14.03;2.93;;;;;;;12.43;64.30;95296.13;1787359;80;21461;-64
2022/07/26 03:10:00;;;;;;;5.77;3.60;;;;;;;12.48;64.41;95294.20;1787291;80;21003;-64
2022/07/26 03:12:27;;;;;;;5.90;3.17;;;;;;;12.54;64.30;95284.73;1787523;80;21007;-64
2022/07/26 03:14:53;;;;;;;10.97;4.57;;;;;;;12.60;63.93;95291.64;1787088;80;21476;-64
2022/07/26 03:17:20;;;;;;;10.33;6.90;;;;;;;12.61;63.91;95292.04;1787277;80;21030;-64
2022/07/26 03:19:46;;;;;;;8.30;6.07;;;;;;;12.59;64.77;95287.24;1787102;80;21038;-65
2022/07/26 03:22:13;;;;;;;8.47;4.10;;;;;;;12.58;64.65;95284.67;1789089;80;21070;-64
2022/07/26 03:24:40;;;;;;;10.37;6.00;;;;;;;12.48;64.88;95288.91;1795546;80;20955;-65
2022/07/26 03:27:06;;;;;;;9.00;7.07;;;;;;;12.44;65.53;95290.37;1795103;80;21066;-64
2022/07/26 03:29:33;;;;;;;9.77;5.30;;;;;;;12.43;65.07;95292.16;1795585;80;21542;-64
2022/07/26 03:32:00;;;;;;;10.90;5.83;;;;;;;12.37;65.76;95290.14;1795458;80;21440;-65
2022/07/26 03:34:26;;;;;;;11.73;6.03;;;;;;;12.32;65.84;95290.27;1795599;80;20987;-65
2022/07/26 03:36:53;;;;;;;9.97;6.20;;;;;;;12.30;65.53;95290.80;1795835;80;20994;-64
2022/07/26 03:39:20;;;;;;;8.43;4.63;;;;;;;12.26;65.69;95295.30;1795958;80;20979;-64
2022/07/26 03:41:46;;;;;;;9.87;5.73;;;;;;;12.27;66.07;95289.55;1795313;80;20999;-64
2022/07/26 03:44:13;;;;;;;9.50;6.00;;;;;;;12.36;66.12;95291.07;1795633;80;20971;-64
2022/07/26 03:46:40;;;;;;;10.00;6.43;;;;;;;12.45;65.88;95286.83;1795367;80;21053;-64
2022/07/26 03:49:06;;;;;;;8.60;6.07;;;;;;;12.46;65.61;95285.91;1795480;80;20990;-65
2022/07/26 03:51:33;;;;;;;9.27;6.67;;;;;;;12.51;65.86;95283.52;1795491;80;20979;-64
2022/07/26 03:54:00;;;;;;;14.20;6.67;;;;;;;12.55;65.52;95280.34;1795814;80;20991;-65
2022/07/26 03:56:34;;;;;;;6.30;4.43;;;;;;;12.66;65.78;95279.99;1795239;80;21002;-65
2022/07/26 03:59:04;;;;;;;8.10;5.90;;;;;;;12.78;65.43;95283.11;1793628;80;21033;-65
2022/07/26 04:01:33;;;;;;;8.25;6.25;;;;;;;12.88;65.77;95283.68;1795683;80;21002;-65
2022/07/26 04:04:00;;;;;;;8.07;5.93;;;;;;;12.96;65.82;95280.31;1795159;80;20982;-65
2022/07/26 04:06:28;;;;;;;9.27;6.50;;;;;;;13.09;65.23;95284.75;1795237;80;21038;-65
2022/07/26 04:08:54;;;;;;;10.07;5.97;;;;;;;13.15;65.58;95277.05;1795672;80;20943;-65
2022/07/26 04:11:21;;;;;;;12.47;6.13;;;;;;;13.21;65.24;95277.72;1795510;80;21038;-64
2022/07/26 04:13:48;;;;;;;14.20;6.03;;;;;;;13.34;64.86;95278.66;1795459;80;21006;-65
2022/07/26 04:16:15;;;;;;;11.00;7.15;;;;;;;13.48;65.18;95268.89;1795384;80;20967;-65
2022/07/26 04:18:41;;;;;;;14.30;8.08;;;;;;;13.62;64.42;95273.25;1795576;80;20970;-65
2022/07/26 04:21:08;;;;;;;13.70;9.40;;;;;;;13.75;64.72;95278.98;1795510;80;21057;-65
2022/07/26 04:23:35;;;;;;;11.88;6.70;;;;;;;13.86;64.49;95275.50;1788643;80;21058;-65
2022/07/26 04:26:01;;;;;;;11.87;7.20;;;;;;;13.98;62.56;95274.16;1786883;80;20991;-65
2022/07/26 04:28:28;;;;;;;9.65;5.78;;;;;;;14.11;62.48;95271.91;1787227;80;20975;-65
2022/07/26 04:30:57;;;;;;;14.83;6.40;;;;;;;14.23;62.09;95276.29;1786892;80;21011;-65
2022/07/26 04:33:24;;;;;;;8.00;5.30;;;;;;;14.37;61.57;95270.94;1786747;80;21038;-65
2022/07/26 04:35:52;;;;;;;9.90;5.42;;;;;;;14.49;61.48;95266.48;1787364;80;20995;-65
2022/07/26 04:38:19;;;;;;;6.22;4.15;;;;;;;14.62;61.07;95267.76;1786935;80;20983;-65
2022/07/26 04:40:45;;;;;;;6.42;4.78;;;;;;;14.75;60.35;95265.48;1787166;80;20995;-65
2022/07/26 04:43:12;;;;;;;7.35;4.20;;;;;;;14.91;60.96;95273.21;1787249;80;21023;-65
2022/07/26 04:45:38;;;;;;;4.53;3.60;;;;;;;15.05;60.35;95266.02;1786866;80;21508;-66
2022/07/26 04:48:06;;;;;;;8.60;4.40;;;;;;;15.22;59.40;95264.00;1786982;80;20975;-65
2022/07/26 04:50:33;;;;;;;6.83;4.42;;;;;;;15.36;59.13;95262.92;1787143;80;21027;-65
2022/07/26 04:53:00;;;;;;;4.42;4.03;;;;;;;15.46;58.65;95258.08;1786919;80;21055;-65
2022/07/26 04:55:27;;;;;;;5.20;4.10;;;;;;;15.61;58.67;95265.01;1787004;80;21071;-65
2022/07/26 04:57:53;;;;;;;4.33;3.62;;;;;;;15.74;58.15;95264.42;1787334;80;21009;-65
2022/07/26 05:00:24;;;;;;;7.35;3.80;;;;;;;15.87;58.19;95261.22;1786958;80;20975;-65
2022/07/26 05:02:55;;;;;;;6.15;3.75;;;;;;;15.99;57.86;95261.53;1787019;80;20967;-65
2022/07/26 05:05:23;;;;;;;4.83;3.58;;;;;;;16.13;55.85;95266.25;1786905;80;21006;-65
2022/07/26 05:07:54;;;;;;;4.37;3.45;;;;;;;16.19;55.29;95255.78;1787041;80;21461;-65
2022/07/26 05:10:25;;;;;;;8.05;3.22;;;;;;;16.33;54.93;95253.80;1787319;80;20999;-65
2022/07/26 05:12:53;;;;;;;6.90;3.90;;;;;;;16.48;55.10;95250.88;1777015;80;21545;-65
2022/07/26 05:27:01;;;;;;;6.53;3.80;;;;;;;18.37;52.70;95232.39;1860202;77;23004;-65
2022/07/26 05:29:28;;;;;;;7.62;3.95;;;;;;;18.30;51.03;95239.02;1832371;78;21442;-65
2022/07/26 05:31:54;;;;;;;6.05;4.10;;;;;;;18.35;50.76;95229.42;1831939;78;21512;-65
2022/07/26 05:34:23;;;;;;;7.17;4.10;;;;;;;18.49;51.22;95237.99;1832426;78;21012;-65
2022/07/26 05:36:50;;;;;;;9.93;3.95;;;;;;;18.59;50.33;95241.39;1832365;78;21043;-65
2022/07/26 05:39:17;;;;;;;16.15;4.15;;;;;;;18.68;49.42;95235.17;1832486;78;20972;-65
2022/07/26 05:41:44;;;;;;;7.53;3.60;;;;;;;18.83;49.86;95236.16;1832438;78;21019;-65
2022/07/26 05:44:10;;;;;;;8.00;3.97;;;;;;;18.94;49.97;95219.87;1832521;78;21003;-65
2022/07/26 05:46:37;;;;;;;5.20;3.80;;;;;;;19.13;50.35;95210.33;1832370;78;21003;-65
2022/07/26 05:49:05;;;;;;;6.92;4.25;;;;;;;19.24;50.97;95229.27;1832271;78;20960;-65
2022/07/26 05:51:33;;;;;;;10.58;4.50;;;;;;;19.37;50.79;95221.37;1832095;78;21011;-65
2022/07/26 05:53:59;;;;;;;11.63;4.20;;;;;;;19.53;50.70;95233.39;1832103;78;21008;-65
2022/07/26 05:56:26;;;;;;;21.33;4.55;;;;;;;19.70;50.48;95224.84;1832223;78;21070;-65
2022/07/26 05:58:53;;;;;;;7.53;3.92;;;;;;;19.85;49.71;95222.57;1832431;78;21008;-65
2022/07/26 06:01:20;;;;;;;10.38;4.22;;;;;;;20.01;49.60;95219.84;1832600;78;20968;-65
2022/07/26 06:03:46;;;;;;;15.48;4.22;;;;;;;20.19;49.17;95221.36;1832243;78;20976;-65
2022/07/26 06:06:13;;;;;;;14.23;4.17;;;;;;;20.35;48.65;95211.02;1832326;78;21051;-65
2022/07/26 06:08:40;;;;;;;12.23;4.00;;;;;;;20.51;49.05;95216.66;1832409;78;21023;-65
2022/07/26 06:11:07;;;;;;;13.55;4.58;;;;;;;20.65;48.07;95217.62;1832378;78;21003;-65
2022/07/26 06:13:33;;;;;;;10.63;4.65;;;;;;;20.79;47.89;95218.94;1832293;78;21012;-65
2022/07/26 06:16:00;;;;;;;14.65;5.22;;;;;;;20.91;47.75;95214.09;1832408;78;21039;-65
2022/07/26 06:18:27;;;;;;;14.25;4.62;;;;;;;21.09;47.70;95206.68;1832279;78;21445;-65
2022/07/26 06:20:54;;;;;;;11.83;3.90;;;;;;;21.25;46.41;95198.95;1832502;78;21047;-65
2022/07/26 06:23:21;;;;;;;14.58;4.53;;;;;;;21.44;46.78;95195.91;1832037;78;21031;-65
2022/07/26 06:25:48;;;;;;;12.50;4.37;;;;;;;21.63;46.57;95191.50;1832019;78;21024;-65
2022/07/26 06:28:14;;;;;;;26.07;4.42;;;;;;;21.82;46.45;95186.55;1831693;78;21065;-65
2022/07/26 06:30:44;;;;;;;23.65;5.25;;;;;;;22.03;46.13;95188.24;1831911;78;21019;-66
2022/07/26 06:33:11;;;;;;;29.72;5.53;;;;;;;22.24;44.35;95183.20;1831418;78;21003;-66
2022/07/26 06:35:38;;;;;;;24.12;4.65;;;;;;;22.43;44.90;95180.06;1831598;78;21091;-66
2022/07/26 06:38:06;;;;;;;21.68;4.15;;;;;;;22.62;43.90;95181.77;1831828;78;21481;-65
2022/07/26 06:40:33;;;;;;;19.35;4.55;;;;;;;22.83;44.28;95177.13;1831362;78;21023;-66
2022/07/26 06:43:00;;;;;;;12.25;4.22;;;;;;;23.04;44.07;95170.70;1831636;78;21043;-66
2022/07/26 06:45:28;;;;;;;13.40;4.47;;;;;;;23.26;43.74;95168.12;1831801;78;20961;-66
2022/07/26 06:47:55;;;;;;;9.28;3.92;;;;;;;23.49;42.20;95169.06;1831363;78;21115;-65
2022/07/26 06:50:22;;;;;;;4.25;3.30;;;;;;;23.75;39.60;95163.52;1831885;78;21007;-65
2022/07/26 06:52:49;;;;;;;9.53;3.98;;;;;;;23.96;36.82;95160.98;1831633;78;21015;-65
2022/07/26 06:55:16;;;;;;;5.40;3.17;;;;;;;24.19;36.55;95165.44;1831449;78;21023;-66
2022/07/26 06:57:43;;;;;;;4.20;2.98;;;;;;;24.43;36.13;95166.29;1832033;78;20987;-66
2022/07/26 07:00:11;;;;;;;8.83;3.10;;;;;;;24.62;34.34;95166.56;1832018;78;21035;-66
2022/07/26 07:15:29;;;;;;;7.62;2.80;;;;;;;26.49;30.58;95137.18;1860324;77;22153;-65
2022/07/26 07:17:56;;;;;;;4.80;2.60;;;;;;;26.57;29.91;95143.30;1832240;78;21003;-65
2022/07/26 07:20:23;;;;;;;5.87;2.60;;;;;;;26.72;30.60;95144.62;1832189;78;20991;-65
2022/07/26 07:22:50;;;;;;;4.12;2.60;;;;;;;26.83;28.42;95149.56;1832392;78;21512;-65
2022/07/26 07:25:17;;;;;;;4.35;2.75;;;;;;;26.94;29.71;95148.95;1832447;78;21497;-65
2022/07/26 07:27:44;;;;;;;3.62;2.60;;;;;;;27.11;28.64;95152.81;1832545;78;21040;-65
2022/07/26 07:30:12;;;;;;;2.35;2.15;;;;;;;27.25;28.39;95150.75;1832405;78;21062;-65
2022/07/26 07:32:39;;;;;;;3.77;2.20;;;;;;;27.34;26.84;95147.16;1832177;78;21374;-65
2022/07/26 07:35:07;;;;;;;2.92;2.30;;;;;;;27.46;28.74;95149.25;1832399;78;20996;-65
2022/07/26 07:37:35;;;;;;;3.90;2.00;;;;;;;27.59;28.67;95142.56;1832404;78;21000;-65
2022/07/26 07:40:08;;;;;;;3.00;1.90;;;;;;;27.75;28.07;95146.03;1832308;78;21026;-65
2022/07/26 07:42:35;;;;;;;3.45;2.60;;;;;;;27.83;25.98;95141.27;1832486;78;21004;-65
2022/07/26 07:45:03;;;;;;;4.62;2.10;;;;;;;27.85;25.64;95144.70;1832378;78;20977;-65
2022/07/26 07:47:35;;;;;;;2.27;1.80;;;;;;;27.91;24.78;95146.81;1832340;78;21011;-65
2022/07/26 07:50:01;;;;;;;2.95;2.25;;;;;;;27.99;25.67;95146.09;1832430;78;21449;-65
2022/07/26 07:52:28;;;;;;;2.33;2.12;;;;;;;28.08;24.93;95147.94;1832185;78;21019;-65
2022/07/26 07:54:55;;;;;;;2.87;2.00;;;;;;;28.19;25.75;95148.25;1832172;78;21046;-65
2022/07/26 07:57:22;;;;;;;3.70;1.92;;;;;;;28.37;26.08;95151.05;1832632;78;20996;-65
2022/07/26 07:59:48;;;;;;;3.67;2.00;;;;;;;28.52;25.40;95154.17;1832632;78;20972;-65
2022/07/26 08:02:15;;;;;;;3.08;2.30;;;;;;;28.65;24.69;95151.48;1832328;78;20991;-65
2022/07/26 08:04:42;;;;;;;2.35;2.15;;;;;;;28.72;24.74;95149.00;1832506;78;21047;-65
2022/07/26 08:07:08;;;;;;;3.58;2.22;;;;;;;28.78;24.35;95152.49;1832271;78;21480;-65
2022/07/26 08:09:35;;;;;;;2.58;2.10;;;;;;;28.71;23.63;95150.53;1832266;78;20992;-65
2022/07/26 08:12:03;;;;;;;4.35;2.25;;;;;;;28.77;24.29;95148.05;1832623;78;20992;-65
2022/07/26 08:14:30;;;;;;;3.67;2.35;;;;;;;28.91;23.93;95150.27;1833778;78;21031;-65
2022/07/26 08:16:56;;;;;;;2.22;2.12;;;;;;;28.93;23.75;95150.12;1835061;78;21000;-65
2022/07/26 08:19:24;;;;;;;3.60;2.33;;;;;;;29.01;24.35;95147.50;1835516;78;21055;-65
2022/07/26 08:21:51;;;;;;;2.27;2.00;;;;;;;29.08;23.39;95144.56;1834978;78;20988;-65
2022/07/26 08:24:18;;;;;;;3.67;2.10;;;;;;;28.95;24.12;95147.24;1835167;78;21019;-65
2022/07/26 08:26:45;;;;;;;2.50;2.30;;;;;;;28.98;24.02;95143.73;1835308;78;21449;-65
2022/07/26 08:29:12;;;;;;;2.42;2.22;;;;;;;29.10;24.28;95143.03;1835228;78;21494;-65
2022/07/26 08:31:39;;;;;;;2.40;2.20;;;;;;;29.22;23.54;95141.81;1834948;78;21083;-65
2022/07/26 08:34:06;;;;;;;2.35;2.15;;;;;;;29.35;24.28;95141.43;1835283;78;21469;-65
2022/07/26 08:36:32;;;;;;;2.30;2.12;;;;;;;29.53;24.05;95139.59;1834552;78;21015;-65
2022/07/26 08:39:00;;;;;;;3.25;2.20;;;;;;;29.73;24.28;95142.15;1835403;78;21485;-65
2022/07/26 08:41:27;;;;;;;2.20;2.00;;;;;;;29.88;23.77;95139.72;1835682;78;21037;-65
2022/07/26 08:43:54;;;;;;;2.50;2.30;;;;;;;30.03;23.22;95134.56;1835254;78;21012;-65
2022/07/26 08:46:22;;;;;;;3.27;2.30;;;;;;;30.00;23.07;95140.33;1835253;78;21024;-65
2022/07/26 08:48:50;;;;;;;2.58;2.10;;;;;;;30.02;22.95;95144.60;1835083;78;21074;-65
2022/07/26 08:51:19;;;;;;;2.40;2.20;;;;;;;30.10;23.09;95132.92;1830355;78;20983;-65
2022/07/26 08:53:47;;;;;;;2.98;2.25;;;;;;;30.25;23.09;95140.88;1835272;78;21035;-65
2022/07/26 08:56:13;;;;;;;2.95;2.10;;;;;;;30.37;22.71;95140.95;1835493;78;20988;-65
2022/07/26 08:58:42;;;;;;;2.72;2.00;;;;;;;30.48;23.04;95133.02;1834966;78;20988;-65
2022/07/26 09:01:14;;;;;;;2.55;2.05;;;;;;;30.59;22.16;95133.23;1835231;78;20984;-65
2022/07/26 09:03:43;;;;;;;2.77;2.30;;;;;;;30.71;21.61;95141.46;1835182;78;21086;-65
2022/07/26 09:06:21;;;;;;;2.12;2.00;;;;;;;30.69;21.71;95145.36;1835212;78;21003;-65
2022/07/26 09:08:51;;;;;;;6.85;2.00;;;;;;;30.73;21.91;95141.31;1835216;78;21007;-65
2022/07/26 09:11:30;;;;;;;2.60;2.10;;;;;;;30.96;22.12;95144.33;1835409;78;20984;-65
2022/07/26 09:14:02;;;;;;;1.87;1.77;;;;;;;31.18;21.97;95143.72;1835768;78;21019;-65
2022/07/26 09:16:31;;;;;;;2.70;2.15;;;;;;;31.12;22.23;95147.61;1840402;78;21043;-65
2022/07/26 09:19:21;;;;;;;1.95;1.85;;;;;;;31.28;20.73;95148.19;1840723;78;21027;-65
2022/07/26 09:21:49;;;;;;;5.40;2.20;;;;;;;31.34;21.58;95140.17;1840633;78;21035;-65
2022/07/26 09:24:36;;;;;;;2.70;2.50;;;;;;;31.45;21.20;95151.33;1840798;78;21011;-65
2022/07/26 09:27:05;;;;;;;3.77;2.30;;;;;;;31.40;20.95;95142.28;1840792;78;21003;-65
2022/07/26 09:29:48;;;;;;;4.87;2.37;;;;;;;31.74;21.57;95133.10;1840710;78;20992;-65
2022/07/26 09:32:21;;;;;;;3.62;2.33;;;;;;;31.87;20.89;95133.44;1830303;78;20968;-65
2022/07/26 09:34:57;;;;;;;2.65;2.27;;;;;;;31.85;20.23;95136.88;1840754;78;21082;-65
2022/07/26 09:37:35;;;;;;;2.72;2.22;;;;;;;31.97;20.46;95141.48;1840294;78;21014;-65
2022/07/26 09:40:07;;;;;;;2.72;2.20;;;;;;;32.00;20.68;95134.83;1840855;78;20995;-65
2022/07/26 09:42:35;;;;;;;4.30;2.47;;;;;;;32.15;19.98;95133.11;1840867;78;21062;-65
2022/07/26 09:45:03;;;;;;;2.98;1.80;;;;;;;32.39;20.33;95125.41;1835763;78;21019;-65
2022/07/26 09:47:38;;;;;;;2.45;2.15;;;;;;;32.66;20.37;95122.80;1840433;78;21070;-65
2022/07/26 09:50:16;;;;;;;2.00;1.87;;;;;;;32.69;19.37;95129.80;1840729;78;21086;-65
2022/07/26 09:53:11;;;;;;;2.30;2.10;;;;;;;32.61;19.37;95122.97;1840005;78;21524;-65
2022/07/26 09:55:49;;;;;;;2.55;1.90;;;;;;;32.55;19.72;95126.74;1817271;78;21014;-65
2022/07/26 09:58:17;;;;;;;2.65;2.45;;;;;;;32.51;19.40;95120.47;1840554;78;21015;-65
2022/07/26 10:00:44;;;;;;;3.58;2.10;;;;;;;32.73;19.79;95118.31;1840616;78;20983;-65
2022/07/26 10:03:11;;;;;;;2.27;1.92;;;;;;;33.09;19.45;95117.02;1840599;78;21070;-65
2022/07/26 10:05:38;;;;;;;5.72;2.15;;;;;;;33.30;19.09;95119.96;1840905;78;20963;-65
2022/07/26 10:08:06;;;;;;;2.27;2.05;;;;;;;33.48;19.19;95106.00;1840455;78;20948;-65
2022/07/26 10:10:41;;;;;;;3.67;2.25;;;;;;;33.50;18.31;95108.56;1840629;78;21003;-65
2022/07/26 10:13:09;;;;;;;2.30;2.10;;;;;;;33.54;18.60;95112.62;1840763;78;21477;-65
2022/07/26 10:15:46;;;;;;;2.27;2.08;;;;;;;33.71;19.11;95115.60;1834050;78;21501;-65
2022/07/26 10:18:42;;;;;;;4.42;2.10;;;;;;;33.98;18.86;95109.23;1831634;78;21792;-66
2022/07/26 10:21:25;;;;;;;4.65;2.10;;;;;;;34.20;18.80;95110.27;1831640;78;21008;-65
2022/07/26 10:23:59;;;;;;;2.80;2.08;;;;;;;34.24;18.49;95102.00;1831595;78;21513;-65
2022/07/26 10:26:36;;;;;;;4.67;2.37;;;;;;;34.25;18.34;95109.19;1830912;78;21130;-65
2022/07/26 10:29:23;;;;;;;2.40;2.20;;;;;;;34.21;17.79;95111.44;1831638;78;20996;-65
2022/07/26 10:32:03;;;;;;;3.27;2.08;;;;;;;34.15;17.59;95112.19;1831052;78;20988;-65
2022/07/26 10:34:37;;;;;;;4.05;1.92;;;;;;;34.20;18.36;95111.11;1830342;78;21035;-66
2022/07/26 10:37:07;;;;;;;4.37;2.08;;;;;;;34.36;17.66;95121.57;1830554;78;20987;-65
2022/07/26 10:39:35;;;;;;;5.33;2.20;;;;;;;34.46;17.77;95118.03;1831420;78;21028;-66
2022/07/26 10:42:08;;;;;;;3.08;2.00;;;;;;;34.68;18.08;95110.81;1831522;78;21043;-65
2022/07/26 10:44:40;;;;;;;5.67;2.42;;;;;;;34.83;17.42;95111.66;1831564;78;21485;-66
2022/07/26 10:47:13;;;;;;;2.15;2.00;;;;;;;34.57;17.67;95103.02;1831870;78;20948;-65
2022/07/26 10:49:57;;;;;;;2.80;2.27;;;;;;;34.32;17.21;95113.38;1831606;78;21000;-65
2022/07/26 10:52:28;;;;;;;3.62;2.20;;;;;;;34.15;17.92;95097.66;1831894;78;20996;-66
2022/07/26 10:55:05;;;;;;;2.10;2.00;;;;;;;34.24;18.17;95100.10;1830782;78;21008;-66
2022/07/26 10:57:39;;;;;;;5.37;2.20;;;;;;;34.42;18.20;95098.41;1831669;78;21409;-65
2022/07/26 11:00:13;;;;;;;2.65;2.40;;;;;;;34.79;18.19;95096.62;1831090;78;20976;-65
2022/07/26 11:02:42;;;;;;;4.67;2.10;;;;;;;34.97;17.88;95098.11;1831683;78;21556;-65
2022/07/26 11:05:13;;;;;;;2.40;2.20;;;;;;;35.03;17.29;95088.61;1831414;78;21028;-65
2022/07/26 11:08:02;;;;;;;6.40;2.40;;;;;;;35.10;17.62;95084.09;1831563;78;21030;-65
2022/07/26 11:10:32;;;;;;;3.33;2.00;;;;;;;35.09;16.93;95095.25;1831038;78;21556;-65
2022/07/26 11:13:12;;;;;;;3.25;2.33;;;;;;;35.04;17.67;95077.96;1831888;78;21463;-65
2022/07/26 11:15:48;;;;;;;4.33;2.10;;;;;;;35.12;17.11;95082.52;1833653;78;20984;-65
2022/07/26 11:18:31;;;;;;;5.92;2.52;;;;;;;35.16;17.46;95081.09;1835031;78;21015;-65
2022/07/26 11:21:16;;;;;;;2.67;2.17;;;;;;;35.38;17.42;95076.50;1835086;78;21004;-65
2022/07/26 11:23:46;;;;;;;2.20;2.10;;;;;;;35.36;16.70;95073.09;1834957;78;21062;-65
2022/07/26 11:26:22;;;;;;;3.80;2.20;;;;;;;35.48;17.30;95071.55;1834737;78;21019;-65
2022/07/26 11:29:03;;;;;;;4.37;2.08;;;;;;;35.69;17.05;95071.25;1835153;78;20988;-65
2022/07/26 11:31:46;;;;;;;3.77;2.30;;;;;;;35.46;16.70;95072.26;1834982;78;21028;-65
2022/07/26 11:34:20;;;;;;;2.15;1.90;;;;;;;35.32;16.75;95069.03;1835124;78;20960;-65
2022/07/26 11:36:49;;;;;;;4.30;2.17;;;;;;;35.37;17.21;95059.70;1834946;78;21004;-65
2022/07/26 11:51:15;;;;;;;6.78;2.20;;;;;;;36.75;15.70;95050.62;1860294;77;22905;-66
2022/07/26 11:53:42;;;;;;;4.10;1.80;;;;;;;36.73;16.00;95050.82;1831824;78;21070;-66
2022/07/26 11:56:16;;;;;;;2.37;2.10;;;;;;;36.89;15.93;95046.03;1832126;78;21055;-66
2022/07/26 11:58:47;;;;;;;2.22;2.00;;;;;;;37.09;15.63;95041.48;1832239;78;21035;-66
2022/07/26 12:01:18;;;;;;;2.55;2.00;;;;;;;36.98;15.01;95051.68;1832373;78;21003;-66
2022/07/26 12:03:49;;;;;;;3.25;2.20;;;;;;;36.83;15.36;95043.05;1832651;78;20936;-66
2022/07/26 12:06:18;;;;;;;3.72;2.00;;;;;;;37.38;15.45;95027.92;1832447;78;21038;-66
2022/07/26 12:08:57;;;;;;;2.60;1.90;;;;;;;37.75;15.12;95024.31;1832386;78;20984;-66
2022/07/26 12:11:29;;;;;;;2.35;2.15;;;;;;;37.97;14.93;95035.10;1832423;78;20989;-66
2022/07/26 12:14:01;;;;;;;3.30;3.00;;;;;;;38.03;14.50;95026.04;1827980;78;21016;-66
2022/07/26 12:16:47;;;;;;;4.60;2.83;;;;;;;38.22;14.58;95029.82;1832254;78;21012;-66
2022/07/26 12:19:23;;;;;;;3.02;2.83;;;;;;;38.61;14.47;95031.70;1832401;78;21008;-66